sensor_id;sensor_type;location;lat;lon;timestamp;temperature;humidity
14908;DHT22;7545;52.092;7.006;2023-06-26T00:01:57;23.50;99.90
14908;DHT22;7545;52.092;7.006;2023-06-26T00:04:23;23.50;99.90
14908;DHT22;7545;52.092;7.006;2023-06-26T00:06:48;23.40;99.90
14908;DHT22;7545;52.092;7.006;2023-06-26T00:09:14;23.40;99.90
14908;DHT22;7545;52.092;7.006;2023-06-26T00:11:39;23.40;99.90
14908;DHT22;7545;52.092;7.006;2023-06-26T00:14:05;23.40;99.90
14908;DHT22;7545;52.092;7.006;2023-06-26T00:16:31;23.40;99.90
14908;DHT22;7545;52.092;7.006;2023-06-26T00:18:57;23.30;99.90
14908;DHT22;7545;52.092;7.006;2023-06-26T00:21:24;23.30;99.90
14908;DHT22;7545;52.092;7.006;2023-06-26T00:23:50;23.30;99.90
14908;DHT22;7545;52.092;7.006;2023-06-26T00:26:16;23.30;99.90
14908;DHT22;7545;52.092;7.006;2023-06-26T00:28:42;23.30;99.90
14908;DHT22;7545;52.092;7.006;2023-06-26T00:31:07;23.30;99.90
14908;DHT22;7545;52.092;7.006;2023-06-26T00:33:33;23.20;99.90
14908;DHT22;7545;52.092;7.006;2023-06-26T00:35:59;23.20;99.90
14908;DHT22;7545;52.092;7.006;2023-06-26T00:38:24;23.20;99.90
14908;DHT22;7545;52.092;7.006;2023-06-26T00:40:50;23.10;99.90
14908;DHT22;7545;52.092;7.006;2023-06-26T00:43:16;23.10;99.90
14908;DHT22;7545;52.092;7.006;2023-06-26T00:45:41;23.10;99.90
14908;DHT22;7545;52.092;7.006;2023-06-26T00:48:07;23.10;99.90
14908;DHT22;7545;52.092;7.006;2023-06-26T00:50:33;23.10;99.90
14908;DHT22;7545;52.092;7.006;2023-06-26T00:52:59;23.10;99.90
14908;DHT22;7545;52.092;7.006;2023-06-26T00:55:27;23.10;99.90
14908;DHT22;7545;52.092;7.006;2023-06-26T00:57:54;23.00;99.90
14908;DHT22;7545;52.092;7.006;2023-06-26T01:00:20;23.10;99.90
14908;DHT22;7545;52.092;7.006;2023-06-26T01:02:45;23.10;99.90
14908;DHT22;7545;52.092;7.006;2023-06-26T01:05:12;23.00;99.90
14908;DHT22;7545;52.092;7.006;2023-06-26T01:07:38;23.00;99.90
14908;DHT22;7545;52.092;7.006;2023-06-26T01:10:06;23.00;99.90
14908;DHT22;7545;52.092;7.006;2023-06-26T01:12:35;23.00;99.90
14908;DHT22;7545;52.092;7.006;2023-06-26T01:15:01;22.90;99.90
14908;DHT22;7545;52.092;7.006;2023-06-26T01:17:27;22.90;99.90
14908;DHT22;7545;52.092;7.006;2023-06-26T01:19:59;23.00;99.90
14908;DHT22;7545;52.092;7.006;2023-06-26T01:22:38;22.90;99.90
14908;DHT22;7545;52.092;7.006;2023-06-26T01:25:31;22.90;99.90
14908;DHT22;7545;52.092;7.006;2023-06-26T01:28:04;23.00;99.90
14908;DHT22;7545;52.092;7.006;2023-06-26T01:30:32;23.00;99.90
14908;DHT22;7545;52.092;7.006;2023-06-26T01:32:58;23.00;99.90
14908;DHT22;7545;52.092;7.006;2023-06-26T01:35:25;23.00;99.90
14908;DHT22;7545;52.092;7.006;2023-06-26T01:37:51;23.00;99.90
14908;DHT22;7545;52.092;7.006;2023-06-26T01:40:17;23.00;99.90
14908;DHT22;7545;52.092;7.006;2023-06-26T01:42:42;23.00;99.90
14908;DHT22;7545;52.092;7.006;2023-06-26T01:45:27;23.00;99.90
14908;DHT22;7545;52.092;7.006;2023-06-26T01:47:57;23.00;99.90
14908;DHT22;7545;52.092;7.006;2023-06-26T01:50:28;23.00;99.90
14908;DHT22;7545;52.092;7.006;2023-06-26T01:53:11;23.00;99.90
14908;DHT22;7545;52.092;7.006;2023-06-26T01:55:40;23.00;99.90
14908;DHT22;7545;52.092;7.006;2023-06-26T01:58:06;23.00;99.90
14908;DHT22;7545;52.092;7.006;2023-06-26T02:00:32;23.00;99.90
14908;DHT22;7545;52.092;7.006;2023-06-26T02:02:58;23.00;99.90
14908;DHT22;7545;52.092;7.006;2023-06-26T02:05:24;23.00;99.90
14908;DHT22;7545;52.092;7.006;2023-06-26T02:07:50;23.00;99.90
14908;DHT22;7545;52.092;7.006;2023-06-26T02:10:16;22.90;99.90
14908;DHT22;7545;52.092;7.006;2023-06-26T02:12:42;22.90;99.90
14908;DHT22;7545;52.092;7.006;2023-06-26T02:15:08;22.90;99.90
14908;DHT22;7545;52.092;7.006;2023-06-26T02:17:34;22.90;99.90
14908;DHT22;7545;52.092;7.006;2023-06-26T02:19:59;22.90;99.90
14908;DHT22;7545;52.092;7.006;2023-06-26T02:22:25;22.90;99.90
14908;DHT22;7545;52.092;7.006;2023-06-26T02:24:51;22.90;99.90
14908;DHT22;7545;52.092;7.006;2023-06-26T02:27:16;22.90;99.90
14908;DHT22;7545;52.092;7.006;2023-06-26T02:29:42;22.90;99.90
14908;DHT22;7545;52.092;7.006;2023-06-26T02:32:08;22.90;99.90
14908;DHT22;7545;52.092;7.006;2023-06-26T02:34:34;22.80;99.90
14908;DHT22;7545;52.092;7.006;2023-06-26T02:37:00;22.80;99.90
14908;DHT22;7545;52.092;7.006;2023-06-26T02:39:26;22.80;99.90
14908;DHT22;7545;52.092;7.006;2023-06-26T02:41:52;22.80;99.90
14908;DHT22;7545;52.092;7.006;2023-06-26T02:44:18;22.80;99.90
14908;DHT22;7545;52.092;7.006;2023-06-26T02:46:43;22.80;99.90
14908;DHT22;7545;52.092;7.006;2023-06-26T02:49:09;22.80;99.90
14908;DHT22;7545;52.092;7.006;2023-06-26T02:51:35;22.80;99.90
14908;DHT22;7545;52.092;7.006;2023-06-26T02:54:00;22.80;99.90
14908;DHT22;7545;52.092;7.006;2023-06-26T02:56:26;22.80;99.90
14908;DHT22;7545;52.092;7.006;2023-06-26T02:58:58;22.80;99.90
14908;DHT22;7545;52.092;7.006;2023-06-26T03:01:23;22.80;99.90
14908;DHT22;7545;52.092;7.006;2023-06-26T03:03:49;22.80;99.90
14908;DHT22;7545;52.092;7.006;2023-06-26T03:06:15;22.80;99.90
14908;DHT22;7545;52.092;7.006;2023-06-26T03:08:41;22.80;99.90
14908;DHT22;7545;52.092;7.006;2023-06-26T03:11:07;22.90;99.90
14908;DHT22;7545;52.092;7.006;2023-06-26T03:13:35;22.80;99.90
14908;DHT22;7545;52.092;7.006;2023-06-26T03:16:00;22.80;99.90
14908;DHT22;7545;52.092;7.006;2023-06-26T03:18:26;22.90;99.90
14908;DHT22;7545;52.092;7.006;2023-06-26T03:20:52;22.90;99.90
14908;DHT22;7545;52.092;7.006;2023-06-26T03:23:21;22.90;99.90
14908;DHT22;7545;52.092;7.006;2023-06-26T03:25:48;22.90;99.90
14908;DHT22;7545;52.092;7.006;2023-06-26T03:28:13;22.90;99.90
14908;DHT22;7545;52.092;7.006;2023-06-26T03:30:39;23.00;99.90
14908;DHT22;7545;52.092;7.006;2023-06-26T03:33:05;23.00;99.90
14908;DHT22;7545;52.092;7.006;2023-06-26T03:35:30;23.00;99.90
14908;DHT22;7545;52.092;7.006;2023-06-26T03:37:57;23.00;99.90
14908;DHT22;7545;52.092;7.006;2023-06-26T03:40:23;23.00;99.90
14908;DHT22;7545;52.092;7.006;2023-06-26T03:42:48;23.00;99.90
14908;DHT22;7545;52.092;7.006;2023-06-26T03:45:14;23.00;99.90
14908;DHT22;7545;52.092;7.006;2023-06-26T03:47:39;23.00;99.90
14908;DHT22;7545;52.092;7.006;2023-06-26T03:50:05;23.00;99.90
14908;DHT22;7545;52.092;7.006;2023-06-26T03:52:31;23.00;99.90
14908;DHT22;7545;52.092;7.006;2023-06-26T03:55:00;23.00;99.90
14908;DHT22;7545;52.092;7.006;2023-06-26T03:57:26;22.90;99.90
14908;DHT22;7545;52.092;7.006;2023-06-26T03:59:52;23.00;99.90
14908;DHT22;7545;52.092;7.006;2023-06-26T04:02:18;22.90;99.90
14908;DHT22;7545;52.092;7.006;2023-06-26T04:04:44;22.90;99.90
14908;DHT22;7545;52.092;7.006;2023-06-26T04:07:10;22.90;99.90
14908;DHT22;7545;52.092;7.006;2023-06-26T04:09:35;22.90;99.90
14908;DHT22;7545;52.092;7.006;2023-06-26T04:12:02;22.90;99.90
14908;DHT22;7545;52.092;7.006;2023-06-26T04:14:28;22.90;99.90
14908;DHT22;7545;52.092;7.006;2023-06-26T04:16:53;22.90;99.90
14908;DHT22;7545;52.092;7.006;2023-06-26T04:19:19;22.80;99.90
14908;DHT22;7545;52.092;7.006;2023-06-26T04:21:45;22.80;99.90
14908;DHT22;7545;52.092;7.006;2023-06-26T04:24:10;22.70;99.90
14908;DHT22;7545;52.092;7.006;2023-06-26T04:26:36;22.70;99.90
14908;DHT22;7545;52.092;7.006;2023-06-26T04:29:02;22.60;99.90
14908;DHT22;7545;52.092;7.006;2023-06-26T04:31:28;22.60;99.90
14908;DHT22;7545;52.092;7.006;2023-06-26T04:33:54;22.70;99.90
14908;DHT22;7545;52.092;7.006;2023-06-26T04:36:20;22.60;99.90
14908;DHT22;7545;52.092;7.006;2023-06-26T04:38:46;22.70;99.90
14908;DHT22;7545;52.092;7.006;2023-06-26T04:41:13;22.70;99.90
14908;DHT22;7545;52.092;7.006;2023-06-26T04:43:39;22.70;99.90
14908;DHT22;7545;52.092;7.006;2023-06-26T04:46:05;22.60;99.90
14908;DHT22;7545;52.092;7.006;2023-06-26T04:48:32;22.60;99.90
14908;DHT22;7545;52.092;7.006;2023-06-26T04:50:57;22.70;99.90
14908;DHT22;7545;52.092;7.006;2023-06-26T04:53:24;22.70;99.90
14908;DHT22;7545;52.092;7.006;2023-06-26T04:55:50;22.60;99.90
14908;DHT22;7545;52.092;7.006;2023-06-26T04:58:16;22.60;99.90
14908;DHT22;7545;52.092;7.006;2023-06-26T05:00:42;22.60;99.90
14908;DHT22;7545;52.092;7.006;2023-06-26T05:03:11;22.60;99.90
14908;DHT22;7545;52.092;7.006;2023-06-26T05:05:37;22.60;99.90
14908;DHT22;7545;52.092;7.006;2023-06-26T05:08:17;22.60;99.90
14908;DHT22;7545;52.092;7.006;2023-06-26T05:10:43;22.60;99.90
14908;DHT22;7545;52.092;7.006;2023-06-26T05:13:09;22.60;99.90
14908;DHT22;7545;52.092;7.006;2023-06-26T05:15:35;22.60;99.90
14908;DHT22;7545;52.092;7.006;2023-06-26T05:18:00;22.60;99.90
14908;DHT22;7545;52.092;7.006;2023-06-26T05:20:26;22.50;99.90
14908;DHT22;7545;52.092;7.006;2023-06-26T05:22:52;22.50;99.90
14908;DHT22;7545;52.092;7.006;2023-06-26T05:25:18;22.50;99.90
14908;DHT22;7545;52.092;7.006;2023-06-26T05:27:47;22.50;99.90
14908;DHT22;7545;52.092;7.006;2023-06-26T05:30:15;22.50;99.90
14908;DHT22;7545;52.092;7.006;2023-06-26T05:32:40;22.50;99.90
14908;DHT22;7545;52.092;7.006;2023-06-26T05:35:07;22.50;99.90
14908;DHT22;7545;52.092;7.006;2023-06-26T05:37:34;22.50;99.90
14908;DHT22;7545;52.092;7.006;2023-06-26T05:40:00;22.40;99.90
14908;DHT22;7545;52.092;7.006;2023-06-26T05:42:27;22.50;99.90
14908;DHT22;7545;52.092;7.006;2023-06-26T05:44:53;22.40;99.90
14908;DHT22;7545;52.092;7.006;2023-06-26T05:47:19;22.50;99.90
14908;DHT22;7545;52.092;7.006;2023-06-26T05:49:44;22.60;99.90
14908;DHT22;7545;52.092;7.006;2023-06-26T05:52:11;22.60;99.90
14908;DHT22;7545;52.092;7.006;2023-06-26T05:54:37;22.60;99.90
14908;DHT22;7545;52.092;7.006;2023-06-26T05:57:03;22.60;99.90
14908;DHT22;7545;52.092;7.006;2023-06-26T05:59:31;22.70;99.90
14908;DHT22;7545;52.092;7.006;2023-06-26T06:01:57;22.80;99.90
14908;DHT22;7545;52.092;7.006;2023-06-26T06:04:23;22.80;99.90
14908;DHT22;7545;52.092;7.006;2023-06-26T06:06:48;22.70;99.90
14908;DHT22;7545;52.092;7.006;2023-06-26T06:09:14;22.70;99.90
14908;DHT22;7545;52.092;7.006;2023-06-26T06:11:40;22.70;99.90
14908;DHT22;7545;52.092;7.006;2023-06-26T06:14:05;22.70;99.90
14908;DHT22;7545;52.092;7.006;2023-06-26T06:16:31;22.60;99.90
14908;DHT22;7545;52.092;7.006;2023-06-26T06:18:56;22.50;99.90
14908;DHT22;7545;52.092;7.006;2023-06-26T06:21:22;22.40;99.90
14908;DHT22;7545;52.092;7.006;2023-06-26T06:23:47;22.40;99.90
14908;DHT22;7545;52.092;7.006;2023-06-26T06:26:13;22.30;99.90
14908;DHT22;7545;52.092;7.006;2023-06-26T06:28:39;22.40;99.90
14908;DHT22;7545;52.092;7.006;2023-06-26T06:31:05;22.20;99.90
14908;DHT22;7545;52.092;7.006;2023-06-26T06:33:30;22.20;99.90
14908;DHT22;7545;52.092;7.006;2023-06-26T06:35:56;22.20;99.90
14908;DHT22;7545;52.092;7.006;2023-06-26T06:38:22;22.30;99.90
14908;DHT22;7545;52.092;7.006;2023-06-26T06:40:47;22.40;99.90
14908;DHT22;7545;52.092;7.006;2023-06-26T06:43:13;22.30;99.90
14908;DHT22;7545;52.092;7.006;2023-06-26T06:45:38;22.40;99.90
14908;DHT22;7545;52.092;7.006;2023-06-26T06:48:04;22.40;99.90
14908;DHT22;7545;52.092;7.006;2023-06-26T06:50:30;22.50;99.90
14908;DHT22;7545;52.092;7.006;2023-06-26T06:52:56;22.50;99.90
14908;DHT22;7545;52.092;7.006;2023-06-26T06:55:22;22.50;99.90
14908;DHT22;7545;52.092;7.006;2023-06-26T06:57:47;22.60;99.90
14908;DHT22;7545;52.092;7.006;2023-06-26T07:00:13;22.60;99.90
14908;DHT22;7545;52.092;7.006;2023-06-26T07:02:42;22.60;99.90
14908;DHT22;7545;52.092;7.006;2023-06-26T07:05:09;22.70;99.90
14908;DHT22;7545;52.092;7.006;2023-06-26T07:07:35;22.70;99.90
14908;DHT22;7545;52.092;7.006;2023-06-26T07:10:12;22.80;99.90
14908;DHT22;7545;52.092;7.006;2023-06-26T07:12:38;22.80;99.90
14908;DHT22;7545;52.092;7.006;2023-06-26T07:15:05;22.80;99.90
14908;DHT22;7545;52.092;7.006;2023-06-26T07:17:32;22.80;99.90
14908;DHT22;7545;52.092;7.006;2023-06-26T07:19:59;22.90;99.90
14908;DHT22;7545;52.092;7.006;2023-06-26T07:22:24;22.90;99.90
14908;DHT22;7545;52.092;7.006;2023-06-26T07:24:50;22.90;99.90
14908;DHT22;7545;52.092;7.006;2023-06-26T07:27:16;23.00;99.90
14908;DHT22;7545;52.092;7.006;2023-06-26T07:29:42;23.00;99.90
14908;DHT22;7545;52.092;7.006;2023-06-26T07:32:08;23.00;99.90
14908;DHT22;7545;52.092;7.006;2023-06-26T07:34:34;23.10;99.90
14908;DHT22;7545;52.092;7.006;2023-06-26T07:36:59;23.10;99.90
14908;DHT22;7545;52.092;7.006;2023-06-26T07:39:25;23.10;99.90
14908;DHT22;7545;52.092;7.006;2023-06-26T07:41:51;23.10;99.90
14908;DHT22;7545;52.092;7.006;2023-06-26T07:44:16;23.10;99.90
14908;DHT22;7545;52.092;7.006;2023-06-26T07:46:42;23.00;99.90
14908;DHT22;7545;52.092;7.006;2023-06-26T07:49:08;23.10;99.90
14908;DHT22;7545;52.092;7.006;2023-06-26T07:51:33;23.10;99.90
14908;DHT22;7545;52.092;7.006;2023-06-26T07:53:59;23.00;99.90
14908;DHT22;7545;52.092;7.006;2023-06-26T07:56:25;23.00;99.90
14908;DHT22;7545;52.092;7.006;2023-06-26T07:58:50;23.10;99.90
14908;DHT22;7545;52.092;7.006;2023-06-26T08:01:16;23.20;99.90
14908;DHT22;7545;52.092;7.006;2023-06-26T08:03:41;23.20;99.90
14908;DHT22;7545;52.092;7.006;2023-06-26T08:06:07;23.30;99.90
14908;DHT22;7545;52.092;7.006;2023-06-26T08:08:33;23.30;99.90
14908;DHT22;7545;52.092;7.006;2023-06-26T08:10:58;23.30;99.90
14908;DHT22;7545;52.092;7.006;2023-06-26T08:13:25;23.40;99.90
14908;DHT22;7545;52.092;7.006;2023-06-26T08:15:50;23.40;99.90
14908;DHT22;7545;52.092;7.006;2023-06-26T08:18:16;23.40;99.90
14908;DHT22;7545;52.092;7.006;2023-06-26T08:20:42;23.40;99.90
14908;DHT22;7545;52.092;7.006;2023-06-26T08:23:07;23.50;99.90
14908;DHT22;7545;52.092;7.006;2023-06-26T08:25:33;23.50;99.90
14908;DHT22;7545;52.092;7.006;2023-06-26T08:27:59;23.50;99.90
14908;DHT22;7545;52.092;7.006;2023-06-26T08:30:24;23.60;99.90
14908;DHT22;7545;52.092;7.006;2023-06-26T08:32:54;23.60;99.90
14908;DHT22;7545;52.092;7.006;2023-06-26T08:35:20;23.60;99.90
14908;DHT22;7545;52.092;7.006;2023-06-26T08:37:45;23.70;99.90
14908;DHT22;7545;52.092;7.006;2023-06-26T08:40:12;23.70;99.90
14908;DHT22;7545;52.092;7.006;2023-06-26T08:42:38;23.70;99.90
14908;DHT22;7545;52.092;7.006;2023-06-26T08:45:03;23.70;99.90
14908;DHT22;7545;52.092;7.006;2023-06-26T08:47:30;23.80;99.90
14908;DHT22;7545;52.092;7.006;2023-06-26T08:50:08;23.70;99.90
14908;DHT22;7545;52.092;7.006;2023-06-26T08:52:43;23.70;99.90
14908;DHT22;7545;52.092;7.006;2023-06-26T08:55:12;23.70;99.90
14908;DHT22;7545;52.092;7.006;2023-06-26T08:57:40;23.70;99.90
14908;DHT22;7545;52.092;7.006;2023-06-26T09:00:06;23.60;99.90
14908;DHT22;7545;52.092;7.006;2023-06-26T09:02:35;23.60;99.90
14908;DHT22;7545;52.092;7.006;2023-06-26T09:05:02;23.70;99.90
14908;DHT22;7545;52.092;7.006;2023-06-26T09:07:28;23.80;99.90
14908;DHT22;7545;52.092;7.006;2023-06-26T09:09:54;23.90;99.90
14908;DHT22;7545;52.092;7.006;2023-06-26T09:12:20;24.00;99.90
14908;DHT22;7545;52.092;7.006;2023-06-26T09:14:46;23.90;99.90
14908;DHT22;7545;52.092;7.006;2023-06-26T09:17:13;23.90;99.90
14908;DHT22;7545;52.092;7.006;2023-06-26T09:19:38;23.90;99.90
14908;DHT22;7545;52.092;7.006;2023-06-26T09:22:04;23.90;99.90
14908;DHT22;7545;52.092;7.006;2023-06-26T09:24:36;23.90;99.90
14908;DHT22;7545;52.092;7.006;2023-06-26T09:27:02;23.90;99.90
14908;DHT22;7545;52.092;7.006;2023-06-26T09:29:28;24.10;99.90
14908;DHT22;7545;52.092;7.006;2023-06-26T09:31:56;24.20;99.90
14908;DHT22;7545;52.092;7.006;2023-06-26T09:34:21;24.20;99.90
14908;DHT22;7545;52.092;7.006;2023-06-26T09:36:47;24.20;99.90
14908;DHT22;7545;52.092;7.006;2023-06-26T09:39:14;24.30;99.90
14908;DHT22;7545;52.092;7.006;2023-06-26T09:41:43;24.40;99.90
14908;DHT22;7545;52.092;7.006;2023-06-26T09:44:13;24.40;99.90
14908;DHT22;7545;52.092;7.006;2023-06-26T09:46:39;24.30;99.90
14908;DHT22;7545;52.092;7.006;2023-06-26T09:49:07;24.40;99.90
14908;DHT22;7545;52.092;7.006;2023-06-26T09:51:36;24.50;99.90
14908;DHT22;7545;52.092;7.006;2023-06-26T09:54:02;24.50;99.90
14908;DHT22;7545;52.092;7.006;2023-06-26T09:56:29;24.50;99.90
14908;DHT22;7545;52.092;7.006;2023-06-26T09:59:00;24.50;99.90
14908;DHT22;7545;52.092;7.006;2023-06-26T10:01:30;24.50;99.90
14908;DHT22;7545;52.092;7.006;2023-06-26T10:03:56;24.50;99.90
14908;DHT22;7545;52.092;7.006;2023-06-26T10:06:31;24.50;99.90
14908;DHT22;7545;52.092;7.006;2023-06-26T10:09:00;24.50;99.90
14908;DHT22;7545;52.092;7.006;2023-06-26T10:11:41;24.40;99.90
14908;DHT22;7545;52.092;7.006;2023-06-26T10:14:11;24.30;99.90
14908;DHT22;7545;52.092;7.006;2023-06-26T10:16:37;24.40;99.90
14908;DHT22;7545;52.092;7.006;2023-06-26T10:19:06;24.50;99.90
14908;DHT22;7545;52.092;7.006;2023-06-26T10:21:34;24.50;99.90
14908;DHT22;7545;52.092;7.006;2023-06-26T10:24:00;24.60;99.90
14908;DHT22;7545;52.092;7.006;2023-06-26T10:26:28;24.60;99.90
14908;DHT22;7545;52.092;7.006;2023-06-26T10:28:56;24.60;99.90
14908;DHT22;7545;52.092;7.006;2023-06-26T10:31:25;24.50;99.90
14908;DHT22;7545;52.092;7.006;2023-06-26T10:33:52;24.40;99.90
14908;DHT22;7545;52.092;7.006;2023-06-26T10:36:20;24.40;99.90
14908;DHT22;7545;52.092;7.006;2023-06-26T10:38:54;24.30;99.90
14908;DHT22;7545;52.092;7.006;2023-06-26T10:41:25;24.30;99.90
14908;DHT22;7545;52.092;7.006;2023-06-26T10:44:12;24.40;99.90
14908;DHT22;7545;52.092;7.006;2023-06-26T10:46:54;24.50;99.90
14908;DHT22;7545;52.092;7.006;2023-06-26T10:49:25;24.60;99.90
14908;DHT22;7545;52.092;7.006;2023-06-26T10:51:51;24.60;99.90
14908;DHT22;7545;52.092;7.006;2023-06-26T10:54:18;24.60;99.90
14908;DHT22;7545;52.092;7.006;2023-06-26T10:59:21;24.50;99.90
14908;DHT22;7545;52.092;7.006;2023-06-26T11:01:58;24.50;99.90
14908;DHT22;7545;52.092;7.006;2023-06-26T11:04:47;24.50;99.90
14908;DHT22;7545;52.092;7.006;2023-06-26T11:07:24;24.40;99.90
14908;DHT22;7545;52.092;7.006;2023-06-26T11:10:09;24.40;99.90
14908;DHT22;7545;52.092;7.006;2023-06-26T11:15:07;24.60;99.90
14908;DHT22;7545;52.092;7.006;2023-06-26T11:17:33;24.70;99.90
14908;DHT22;7545;52.092;7.006;2023-06-26T11:19:59;24.90;99.90
14908;DHT22;7545;52.092;7.006;2023-06-26T11:22:26;25.00;99.90
14908;DHT22;7545;52.092;7.006;2023-06-26T11:24:53;25.00;99.90
14908;DHT22;7545;52.092;7.006;2023-06-26T11:27:19;25.10;99.90
14908;DHT22;7545;52.092;7.006;2023-06-26T11:29:49;25.20;99.90
14908;DHT22;7545;52.092;7.006;2023-06-26T11:32:17;25.40;99.90
14908;DHT22;7545;52.092;7.006;2023-06-26T11:34:43;25.40;99.90
14908;DHT22;7545;52.092;7.006;2023-06-26T11:37:09;25.30;99.90
14908;DHT22;7545;52.092;7.006;2023-06-26T11:39:35;25.10;99.90
14908;DHT22;7545;52.092;7.006;2023-06-26T11:42:02;25.10;99.90
14908;DHT22;7545;52.092;7.006;2023-06-26T11:44:30;25.10;99.90
14908;DHT22;7545;52.092;7.006;2023-06-26T11:46:56;25.20;99.90
14908;DHT22;7545;52.092;7.006;2023-06-26T11:49:23;25.40;99.90
14908;DHT22;7545;52.092;7.006;2023-06-26T11:51:51;25.30;99.90
14908;DHT22;7545;52.092;7.006;2023-06-26T11:54:24;25.40;99.90
14908;DHT22;7545;52.092;7.006;2023-06-26T11:56:57;25.40;99.90
14908;DHT22;7545;52.092;7.006;2023-06-26T11:59:24;25.50;99.90
14908;DHT22;7545;52.092;7.006;2023-06-26T12:01:50;25.60;99.90
14908;DHT22;7545;52.092;7.006;2023-06-26T12:04:19;25.70;99.90
14908;DHT22;7545;52.092;7.006;2023-06-26T12:06:47;25.80;99.90
14908;DHT22;7545;52.092;7.006;2023-06-26T12:09:17;25.90;99.90
14908;DHT22;7545;52.092;7.006;2023-06-26T12:11:44;25.80;99.90
14908;DHT22;7545;52.092;7.006;2023-06-26T12:14:11;25.90;99.90
14908;DHT22;7545;52.092;7.006;2023-06-26T12:16:37;25.90;99.90
14908;DHT22;7545;52.092;7.006;2023-06-26T12:19:06;26.00;99.90
14908;DHT22;7545;52.092;7.006;2023-06-26T12:21:45;26.00;99.90
14908;DHT22;7545;52.092;7.006;2023-06-26T12:24:21;26.10;99.90
14908;DHT22;7545;52.092;7.006;2023-06-26T12:26:51;26.20;99.90
14908;DHT22;7545;52.092;7.006;2023-06-26T12:29:20;26.10;99.90
14908;DHT22;7545;52.092;7.006;2023-06-26T12:31:53;26.00;99.90
14908;DHT22;7545;52.092;7.006;2023-06-26T12:34:29;26.00;99.90
14908;DHT22;7545;52.092;7.006;2023-06-26T12:37:04;26.00;99.90
14908;DHT22;7545;52.092;7.006;2023-06-26T12:42:15;26.00;99.90
14908;DHT22;7545;52.092;7.006;2023-06-26T12:44:41;26.00;99.90
14908;DHT22;7545;52.092;7.006;2023-06-26T12:47:06;26.00;99.90
14908;DHT22;7545;52.092;7.006;2023-06-26T12:49:37;26.10;99.90
14908;DHT22;7545;52.092;7.006;2023-06-26T12:52:05;26.20;99.90
14908;DHT22;7545;52.092;7.006;2023-06-26T12:54:30;26.30;99.90
14908;DHT22;7545;52.092;7.006;2023-06-26T12:56:57;26.40;99.90
14908;DHT22;7545;52.092;7.006;2023-06-26T12:59:22;26.40;99.90
14908;DHT22;7545;52.092;7.006;2023-06-26T13:01:48;26.50;99.90
14908;DHT22;7545;52.092;7.006;2023-06-26T13:04:14;26.60;99.90
14908;DHT22;7545;52.092;7.006;2023-06-26T13:06:40;26.60;99.90
14908;DHT22;7545;52.092;7.006;2023-06-26T13:09:06;26.60;99.90
14908;DHT22;7545;52.092;7.006;2023-06-26T13:11:32;26.60;99.90
14908;DHT22;7545;52.092;7.006;2023-06-26T13:13:59;26.60;99.90
14908;DHT22;7545;52.092;7.006;2023-06-26T13:16:24;26.50;99.90
14908;DHT22;7545;52.092;7.006;2023-06-26T13:18:50;26.30;99.90
14908;DHT22;7545;52.092;7.006;2023-06-26T13:21:16;26.30;99.90
14908;DHT22;7545;52.092;7.006;2023-06-26T13:23:43;26.30;99.90
14908;DHT22;7545;52.092;7.006;2023-06-26T13:26:09;26.40;99.90
14908;DHT22;7545;52.092;7.006;2023-06-26T13:28:35;26.30;99.90
14908;DHT22;7545;52.092;7.006;2023-06-26T13:31:02;26.30;99.90
14908;DHT22;7545;52.092;7.006;2023-06-26T13:33:28;26.40;99.90
14908;DHT22;7545;52.092;7.006;2023-06-26T13:35:54;26.30;99.90
14908;DHT22;7545;52.092;7.006;2023-06-26T13:38:24;26.30;99.00
14908;DHT22;7545;52.092;7.006;2023-06-26T13:40:56;26.20;98.90
14908;DHT22;7545;52.092;7.006;2023-06-26T13:43:26;26.20;99.10
14908;DHT22;7545;52.092;7.006;2023-06-26T13:45:53;26.10;99.40
14908;DHT22;7545;52.092;7.006;2023-06-26T13:48:19;26.10;99.60
14908;DHT22;7545;52.092;7.006;2023-06-26T13:50:45;26.00;99.40
14908;DHT22;7545;52.092;7.006;2023-06-26T13:53:11;26.10;98.60
14908;DHT22;7545;52.092;7.006;2023-06-26T13:55:37;26.00;98.50
14908;DHT22;7545;52.092;7.006;2023-06-26T13:58:04;26.00;99.10
14908;DHT22;7545;52.092;7.006;2023-06-26T14:00:31;26.00;97.90
14908;DHT22;7545;52.092;7.006;2023-06-26T14:02:56;26.10;98.30
14908;DHT22;7545;52.092;7.006;2023-06-26T14:05:22;26.30;97.40
14908;DHT22;7545;52.092;7.006;2023-06-26T14:07:48;26.40;96.60
14908;DHT22;7545;52.092;7.006;2023-06-26T14:10:14;26.50;96.20
14908;DHT22;7545;52.092;7.006;2023-06-26T14:12:40;26.60;95.10
14908;DHT22;7545;52.092;7.006;2023-06-26T14:15:06;26.50;94.90
14908;DHT22;7545;52.092;7.006;2023-06-26T14:17:32;26.60;95.10
14908;DHT22;7545;52.092;7.006;2023-06-26T14:19:58;26.70;95.50
14908;DHT22;7545;52.092;7.006;2023-06-26T14:22:24;26.60;95.10
14908;DHT22;7545;52.092;7.006;2023-06-26T14:24:50;26.50;95.50
14908;DHT22;7545;52.092;7.006;2023-06-26T14:27:16;26.40;95.70
14908;DHT22;7545;52.092;7.006;2023-06-26T14:29:41;26.40;96.50
14908;DHT22;7545;52.092;7.006;2023-06-26T14:32:07;26.50;97.30
14908;DHT22;7545;52.092;7.006;2023-06-26T14:34:33;26.50;97.50
14908;DHT22;7545;52.092;7.006;2023-06-26T14:36:59;26.60;97.70
14908;DHT22;7545;52.092;7.006;2023-06-26T14:39:24;26.50;98.00
14908;DHT22;7545;52.092;7.006;2023-06-26T14:41:50;26.50;98.20
14908;DHT22;7545;52.092;7.006;2023-06-26T14:44:16;26.40;98.10
14908;DHT22;7545;52.092;7.006;2023-06-26T14:46:41;26.30;97.50
14908;DHT22;7545;52.092;7.006;2023-06-26T14:49:07;26.20;97.60
14908;DHT22;7545;52.092;7.006;2023-06-26T14:51:33;26.20;97.50
14908;DHT22;7545;52.092;7.006;2023-06-26T14:54:00;26.10;97.40
14908;DHT22;7545;52.092;7.006;2023-06-26T14:56:25;26.10;97.50
14908;DHT22;7545;52.092;7.006;2023-06-26T14:58:51;26.10;97.30
14908;DHT22;7545;52.092;7.006;2023-06-26T15:01:18;26.10;97.00
14908;DHT22;7545;52.092;7.006;2023-06-26T15:03:46;26.00;97.20
14908;DHT22;7545;52.092;7.006;2023-06-26T15:06:11;26.00;97.30
14908;DHT22;7545;52.092;7.006;2023-06-26T15:08:37;25.90;97.40
14908;DHT22;7545;52.092;7.006;2023-06-26T15:11:02;25.80;97.30
14908;DHT22;7545;52.092;7.006;2023-06-26T15:13:28;25.60;98.00
14908;DHT22;7545;52.092;7.006;2023-06-26T15:15:54;25.60;98.20
14908;DHT22;7545;52.092;7.006;2023-06-26T15:18:19;25.70;98.30
14908;DHT22;7545;52.092;7.006;2023-06-26T15:20:45;25.70;98.40
14908;DHT22;7545;52.092;7.006;2023-06-26T15:23:10;25.70;98.80
14908;DHT22;7545;52.092;7.006;2023-06-26T15:25:36;25.80;99.30
14908;DHT22;7545;52.092;7.006;2023-06-26T15:28:05;25.80;98.20
14908;DHT22;7545;52.092;7.006;2023-06-26T15:30:31;25.50;98.40
14908;DHT22;7545;52.092;7.006;2023-06-26T15:32:57;25.40;98.60
14908;DHT22;7545;52.092;7.006;2023-06-26T15:35:22;25.30;99.20
14908;DHT22;7545;52.092;7.006;2023-06-26T15:37:48;25.20;98.90
14908;DHT22;7545;52.092;7.006;2023-06-26T15:40:15;25.20;99.20
14908;DHT22;7545;52.092;7.006;2023-06-26T15:42:51;25.10;99.00
14908;DHT22;7545;52.092;7.006;2023-06-26T15:45:18;25.10;99.10
14908;DHT22;7545;52.092;7.006;2023-06-26T15:47:44;25.10;99.70
14908;DHT22;7545;52.092;7.006;2023-06-26T15:50:10;25.10;99.60
14908;DHT22;7545;52.092;7.006;2023-06-26T15:52:37;25.10;99.50